Encruzilhada, Brazil
Current Conditions -  °F | °C
As of 7:00 PM on Thursday 18 Dec 2014 (Local Time) from SBQV Reporting Station
Light Rain Light Rain  
Wind Chill: 68°   Ceiling: 700
Heat Index: 68°   Visibility: 5mi
Dew Point: 68°   Wind: 12mph
Humidity: 100%   Direction: 40°NE
Pressure: 29.97"   Gusts: NA
Location:  15.53°S, 40.91°W
Report Text: SBQV 182200Z 04010KT 8000 -RA BKN007 BKN070 20/20 Q1015
Loading
Personal Weather Stations






























Interactive Weather Map New forecast layout! Learn more

10-Day Weather Forecast

Advertisements
Track Severe Weather on mobile